sensor_id;sensor_type;location;lat;lon;timestamp;P1;durP1;ratioP1;P2;durP2;ratioP2
25581;SDS011;13462;50.764;4.332;2023-05-23T00:00:57;71.45;;;35.65;;
25581;SDS011;13462;50.764;4.332;2023-05-23T00:03:23;77.63;;;37.75;;
25581;SDS011;13462;50.764;4.332;2023-05-23T00:05:52;85.60;;;37.00;;
25581;SDS011;13462;50.764;4.332;2023-05-23T00:08:20;75.18;;;35.08;;
25581;SDS011;13462;50.764;4.332;2023-05-23T00:10:46;84.57;;;36.10;;
25581;SDS011;13462;50.764;4.332;2023-05-23T00:13:11;83.63;;;37.10;;
25581;SDS011;13462;50.764;4.332;2023-05-23T00:15:38;88.93;;;37.15;;
25581;SDS011;13462;50.764;4.332;2023-05-23T00:18:08;87.75;;;37.42;;
25581;SDS011;13462;50.764;4.332;2023-05-23T00:20:35;86.65;;;37.90;;
25581;SDS011;13462;50.764;4.332;2023-05-23T00:23:04;88.80;;;39.08;;
25581;SDS011;13462;50.764;4.332;2023-05-23T00:25:31;92.00;;;37.03;;
25581;SDS011;13462;50.764;4.332;2023-05-23T00:28:00;88.05;;;37.67;;
25581;SDS011;13462;50.764;4.332;2023-05-23T00:30:30;89.68;;;38.33;;
25581;SDS011;13462;50.764;4.332;2023-05-23T00:32:56;90.97;;;37.50;;
25581;SDS011;13462;50.764;4.332;2023-05-23T00:35:22;93.40;;;38.55;;
25581;SDS011;13462;50.764;4.332;2023-05-23T00:37:48;89.13;;;37.58;;
25581;SDS011;13462;50.764;4.332;2023-05-23T00:40:16;88.18;;;38.47;;
25581;SDS011;13462;50.764;4.332;2023-05-23T00:42:42;87.22;;;36.72;;
25581;SDS011;13462;50.764;4.332;2023-05-23T00:45:08;84.38;;;36.53;;
25581;SDS011;13462;50.764;4.332;2023-05-23T00:47:36;86.18;;;35.83;;
25581;SDS011;13462;50.764;4.332;2023-05-23T00:50:03;93.10;;;38.97;;
25581;SDS011;13462;50.764;4.332;2023-05-23T00:52:31;87.60;;;37.55;;
25581;SDS011;13462;50.764;4.332;2023-05-23T00:54:57;94.13;;;39.08;;
25581;SDS011;13462;50.764;4.332;2023-05-23T00:57:22;89.53;;;38.08;;
25581;SDS011;13462;50.764;4.332;2023-05-23T00:59:48;85.47;;;38.05;;
25581;SDS011;13462;50.764;4.332;2023-05-23T01:02:13;86.03;;;38.97;;
25581;SDS011;13462;50.764;4.332;2023-05-23T01:04:39;82.28;;;36.17;;
25581;SDS011;13462;50.764;4.332;2023-05-23T01:07:07;82.68;;;37.40;;
25581;SDS011;13462;50.764;4.332;2023-05-23T01:09:34;80.75;;;37.97;;
25581;SDS011;13462;50.764;4.332;2023-05-23T01:12:03;97.22;;;38.13;;
25581;SDS011;13462;50.764;4.332;2023-05-23T01:20:30;84.47;;;38.58;;
25581;SDS011;13462;50.764;4.332;2023-05-23T01:23:19;88.22;;;38.55;;
25581;SDS011;13462;50.764;4.332;2023-05-23T01:28:58;97.55;;;38.85;;
25581;SDS011;13462;50.764;4.332;2023-05-23T01:31:34;98.43;;;39.00;;
25581;SDS011;13462;50.764;4.332;2023-05-23T01:34:06;102.85;;;41.85;;
25581;SDS011;13462;50.764;4.332;2023-05-23T01:36:33;102.65;;;41.63;;
25581;SDS011;13462;50.764;4.332;2023-05-23T01:39:03;93.35;;;41.25;;
25581;SDS011;13462;50.764;4.332;2023-05-23T01:41:30;93.20;;;40.35;;
25581;SDS011;13462;50.764;4.332;2023-05-23T01:43:56;90.55;;;40.47;;
25581;SDS011;13462;50.764;4.332;2023-05-23T01:46:21;98.72;;;39.47;;
25581;SDS011;13462;50.764;4.332;2023-05-23T01:48:48;86.97;;;40.75;;
25581;SDS011;13462;50.764;4.332;2023-05-23T01:51:14;85.40;;;40.83;;
25581;SDS011;13462;50.764;4.332;2023-05-23T01:53:40;93.03;;;39.60;;
25581;SDS011;13462;50.764;4.332;2023-05-23T01:56:07;93.18;;;39.22;;
25581;SDS011;13462;50.764;4.332;2023-05-23T01:58:33;90.45;;;38.75;;
25581;SDS011;13462;50.764;4.332;2023-05-23T02:00:58;90.57;;;40.72;;
25581;SDS011;13462;50.764;4.332;2023-05-23T02:03:24;79.40;;;36.70;;
25581;SDS011;13462;50.764;4.332;2023-05-23T02:05:50;75.68;;;36.58;;
25581;SDS011;13462;50.764;4.332;2023-05-23T02:08:15;72.97;;;37.03;;
25581;SDS011;13462;50.764;4.332;2023-05-23T02:10:41;80.28;;;36.78;;
25581;SDS011;13462;50.764;4.332;2023-05-23T02:13:07;79.28;;;36.53;;
25581;SDS011;13462;50.764;4.332;2023-05-23T02:15:32;79.15;;;37.15;;
25581;SDS011;13462;50.764;4.332;2023-05-23T02:17:58;74.10;;;36.55;;
25581;SDS011;13462;50.764;4.332;2023-05-23T02:20:23;79.22;;;38.28;;
25581;SDS011;13462;50.764;4.332;2023-05-23T02:22:49;76.32;;;37.95;;
25581;SDS011;13462;50.764;4.332;2023-05-23T02:25:15;73.40;;;36.70;;
25581;SDS011;13462;50.764;4.332;2023-05-23T02:27:41;78.05;;;38.42;;
25581;SDS011;13462;50.764;4.332;2023-05-23T02:30:06;83.35;;;38.45;;
25581;SDS011;13462;50.764;4.332;2023-05-23T02:32:33;77.70;;;37.47;;
25581;SDS011;13462;50.764;4.332;2023-05-23T02:34:58;82.22;;;36.33;;
25581;SDS011;13462;50.764;4.332;2023-05-23T02:37:24;78.43;;;36.08;;
25581;SDS011;13462;50.764;4.332;2023-05-23T02:39:50;75.22;;;35.13;;
25581;SDS011;13462;50.764;4.332;2023-05-23T02:42:15;78.70;;;37.47;;
25581;SDS011;13462;50.764;4.332;2023-05-23T02:44:41;67.32;;;34.55;;
25581;SDS011;13462;50.764;4.332;2023-05-23T02:47:06;69.57;;;34.15;;
25581;SDS011;13462;50.764;4.332;2023-05-23T02:49:32;66.20;;;32.42;;
25581;SDS011;13462;50.764;4.332;2023-05-23T02:51:57;58.53;;;31.80;;
25581;SDS011;13462;50.764;4.332;2023-05-23T02:54:23;58.17;;;30.67;;
25581;SDS011;13462;50.764;4.332;2023-05-23T02:56:49;50.65;;;27.83;;
25581;SDS011;13462;50.764;4.332;2023-05-23T02:59:16;52.58;;;27.63;;
25581;SDS011;13462;50.764;4.332;2023-05-23T03:01:41;56.55;;;27.55;;
25581;SDS011;13462;50.764;4.332;2023-05-23T03:04:07;42.85;;;25.40;;
25581;SDS011;13462;50.764;4.332;2023-05-23T03:06:33;49.95;;;25.35;;
25581;SDS011;13462;50.764;4.332;2023-05-23T03:09:00;41.28;;;22.52;;
25581;SDS011;13462;50.764;4.332;2023-05-23T03:11:26;37.10;;;23.85;;
25581;SDS011;13462;50.764;4.332;2023-05-23T03:13:53;40.28;;;23.52;;
25581;SDS011;13462;50.764;4.332;2023-05-23T03:16:20;41.83;;;23.15;;
25581;SDS011;13462;50.764;4.332;2023-05-23T03:18:46;43.65;;;23.67;;
25581;SDS011;13462;50.764;4.332;2023-05-23T03:21:12;37.85;;;23.13;;
25581;SDS011;13462;50.764;4.332;2023-05-23T03:23:37;46.17;;;24.55;;
25581;SDS011;13462;50.764;4.332;2023-05-23T03:26:03;37.75;;;22.38;;
25581;SDS011;13462;50.764;4.332;2023-05-23T03:28:30;42.78;;;22.88;;
25581;SDS011;13462;50.764;4.332;2023-05-23T03:30:56;48.75;;;25.73;;
25581;SDS011;13462;50.764;4.332;2023-05-23T03:33:22;49.92;;;25.58;;
25581;SDS011;13462;50.764;4.332;2023-05-23T03:35:48;56.05;;;25.55;;
25581;SDS011;13462;50.764;4.332;2023-05-23T03:38:14;47.63;;;24.63;;
25581;SDS011;13462;50.764;4.332;2023-05-23T03:40:40;49.65;;;27.13;;
25581;SDS011;13462;50.764;4.332;2023-05-23T03:43:06;47.30;;;27.52;;
25581;SDS011;13462;50.764;4.332;2023-05-23T03:45:32;50.53;;;27.67;;
25581;SDS011;13462;50.764;4.332;2023-05-23T03:47:58;52.22;;;27.73;;
25581;SDS011;13462;50.764;4.332;2023-05-23T03:50:24;43.83;;;25.70;;
25581;SDS011;13462;50.764;4.332;2023-05-23T03:52:50;50.75;;;27.55;;
25581;SDS011;13462;50.764;4.332;2023-05-23T03:55:16;53.65;;;28.75;;
25581;SDS011;13462;50.764;4.332;2023-05-23T03:57:46;58.90;;;28.10;;
25581;SDS011;13462;50.764;4.332;2023-05-23T04:00:12;54.80;;;29.85;;
25581;SDS011;13462;50.764;4.332;2023-05-23T04:02:39;69.10;;;31.75;;
25581;SDS011;13462;50.764;4.332;2023-05-23T04:05:05;56.22;;;30.40;;
25581;SDS011;13462;50.764;4.332;2023-05-23T04:07:31;54.28;;;27.95;;
25581;SDS011;13462;50.764;4.332;2023-05-23T04:10:00;60.33;;;31.60;;
25581;SDS011;13462;50.764;4.332;2023-05-23T04:12:27;58.97;;;29.55;;
25581;SDS011;13462;50.764;4.332;2023-05-23T04:14:55;54.65;;;31.02;;
25581;SDS011;13462;50.764;4.332;2023-05-23T04:17:21;56.55;;;32.35;;
25581;SDS011;13462;50.764;4.332;2023-05-23T04:19:48;62.75;;;32.28;;
25581;SDS011;13462;50.764;4.332;2023-05-23T04:22:14;60.78;;;33.20;;
25581;SDS011;13462;50.764;4.332;2023-05-23T04:24:40;72.20;;;35.95;;
25581;SDS011;13462;50.764;4.332;2023-05-23T04:27:06;86.90;;;38.92;;
25581;SDS011;13462;50.764;4.332;2023-05-23T04:29:32;68.47;;;37.42;;
25581;SDS011;13462;50.764;4.332;2023-05-23T04:31:59;66.20;;;34.35;;
25581;SDS011;13462;50.764;4.332;2023-05-23T04:34:30;67.82;;;35.60;;
25581;SDS011;13462;50.764;4.332;2023-05-23T04:36:57;58.00;;;34.15;;
25581;SDS011;13462;50.764;4.332;2023-05-23T04:39:26;61.03;;;33.88;;
25581;SDS011;13462;50.764;4.332;2023-05-23T04:41:55;60.47;;;33.20;;
25581;SDS011;13462;50.764;4.332;2023-05-23T04:44:22;61.22;;;33.10;;
25581;SDS011;13462;50.764;4.332;2023-05-23T04:46:47;57.65;;;33.08;;
25581;SDS011;13462;50.764;4.332;2023-05-23T04:49:14;55.53;;;32.08;;
25581;SDS011;13462;50.764;4.332;2023-05-23T04:51:40;52.95;;;30.77;;
25581;SDS011;13462;50.764;4.332;2023-05-23T04:54:06;52.47;;;30.40;;
25581;SDS011;13462;50.764;4.332;2023-05-23T04:56:32;44.15;;;28.23;;
25581;SDS011;13462;50.764;4.332;2023-05-23T04:58:57;46.35;;;27.17;;
25581;SDS011;13462;50.764;4.332;2023-05-23T05:01:23;47.22;;;27.60;;
25581;SDS011;13462;50.764;4.332;2023-05-23T05:03:49;43.92;;;25.42;;
25581;SDS011;13462;50.764;4.332;2023-05-23T05:06:15;49.85;;;26.75;;
25581;SDS011;13462;50.764;4.332;2023-05-23T05:08:42;42.10;;;24.73;;
25581;SDS011;13462;50.764;4.332;2023-05-23T05:11:08;45.30;;;25.20;;
25581;SDS011;13462;50.764;4.332;2023-05-23T05:13:34;47.60;;;24.77;;
25581;SDS011;13462;50.764;4.332;2023-05-23T05:16:00;43.95;;;26.25;;
25581;SDS011;13462;50.764;4.332;2023-05-23T05:18:27;45.45;;;26.63;;
25581;SDS011;13462;50.764;4.332;2023-05-23T05:20:53;51.22;;;29.40;;
25581;SDS011;13462;50.764;4.332;2023-05-23T05:23:18;50.28;;;29.85;;
25581;SDS011;13462;50.764;4.332;2023-05-23T05:25:45;51.80;;;29.77;;
25581;SDS011;13462;50.764;4.332;2023-05-23T05:28:11;57.53;;;30.40;;
25581;SDS011;13462;50.764;4.332;2023-05-23T05:30:37;46.20;;;31.02;;
25581;SDS011;13462;50.764;4.332;2023-05-23T05:33:03;48.53;;;30.58;;
25581;SDS011;13462;50.764;4.332;2023-05-23T05:35:30;50.78;;;29.65;;
25581;SDS011;13462;50.764;4.332;2023-05-23T05:37:56;51.03;;;28.73;;
25581;SDS011;13462;50.764;4.332;2023-05-23T05:40:22;65.63;;;42.97;;
25581;SDS011;13462;50.764;4.332;2023-05-23T05:42:48;46.75;;;28.75;;
25581;SDS011;13462;50.764;4.332;2023-05-23T05:45:14;45.75;;;29.48;;
25581;SDS011;13462;50.764;4.332;2023-05-23T05:47:39;48.08;;;27.27;;
25581;SDS011;13462;50.764;4.332;2023-05-23T05:50:05;43.42;;;26.05;;
25581;SDS011;13462;50.764;4.332;2023-05-23T05:52:34;42.55;;;23.73;;
25581;SDS011;13462;50.764;4.332;2023-05-23T05:55:04;42.30;;;24.05;;
25581;SDS011;13462;50.764;4.332;2023-05-23T05:57:30;49.50;;;24.33;;
25581;SDS011;13462;50.764;4.332;2023-05-23T05:59:57;42.15;;;21.60;;
25581;SDS011;13462;50.764;4.332;2023-05-23T06:02:22;59.22;;;22.80;;
25581;SDS011;13462;50.764;4.332;2023-05-23T06:04:48;48.50;;;20.77;;
25581;SDS011;13462;50.764;4.332;2023-05-23T06:07:14;47.85;;;20.95;;
25581;SDS011;13462;50.764;4.332;2023-05-23T06:09:39;41.00;;;19.35;;
25581;SDS011;13462;50.764;4.332;2023-05-23T06:12:05;44.78;;;18.13;;
25581;SDS011;13462;50.764;4.332;2023-05-23T06:14:31;50.42;;;18.75;;
25581;SDS011;13462;50.764;4.332;2023-05-23T06:16:56;50.35;;;20.80;;
25581;SDS011;13462;50.764;4.332;2023-05-23T06:19:22;43.50;;;18.52;;
25581;SDS011;13462;50.764;4.332;2023-05-23T06:21:47;44.28;;;17.13;;
25581;SDS011;13462;50.764;4.332;2023-05-23T06:24:14;39.75;;;17.92;;
25581;SDS011;13462;50.764;4.332;2023-05-23T06:26:39;43.53;;;17.77;;
25581;SDS011;13462;50.764;4.332;2023-05-23T06:29:05;45.42;;;17.85;;
25581;SDS011;13462;50.764;4.332;2023-05-23T06:31:31;46.95;;;18.98;;
25581;SDS011;13462;50.764;4.332;2023-05-23T06:33:56;52.38;;;19.15;;
25581;SDS011;13462;50.764;4.332;2023-05-23T06:36:22;43.25;;;18.35;;
25581;SDS011;13462;50.764;4.332;2023-05-23T06:38:47;47.67;;;17.83;;
25581;SDS011;13462;50.764;4.332;2023-05-23T06:41:13;42.40;;;17.95;;
25581;SDS011;13462;50.764;4.332;2023-05-23T06:43:39;47.97;;;21.00;;
25581;SDS011;13462;50.764;4.332;2023-05-23T06:46:04;40.97;;;20.63;;
25581;SDS011;13462;50.764;4.332;2023-05-23T06:48:30;38.83;;;19.10;;
25581;SDS011;13462;50.764;4.332;2023-05-23T06:50:56;48.45;;;21.80;;
25581;SDS011;13462;50.764;4.332;2023-05-23T06:53:21;53.08;;;20.20;;
25581;SDS011;13462;50.764;4.332;2023-05-23T06:55:47;46.58;;;20.83;;
25581;SDS011;13462;50.764;4.332;2023-05-23T06:58:13;38.75;;;19.25;;
25581;SDS011;13462;50.764;4.332;2023-05-23T07:00:38;40.30;;;18.95;;
25581;SDS011;13462;50.764;4.332;2023-05-23T07:03:04;43.38;;;19.02;;
25581;SDS011;13462;50.764;4.332;2023-05-23T07:05:31;36.40;;;18.17;;
25581;SDS011;13462;50.764;4.332;2023-05-23T07:07:57;43.88;;;19.65;;
25581;SDS011;13462;50.764;4.332;2023-05-23T07:10:22;41.13;;;16.85;;
25581;SDS011;13462;50.764;4.332;2023-05-23T07:12:48;36.70;;;16.00;;
25581;SDS011;13462;50.764;4.332;2023-05-23T07:15:14;32.75;;;15.68;;
25581;SDS011;13462;50.764;4.332;2023-05-23T07:17:40;32.05;;;14.27;;
25581;SDS011;13462;50.764;4.332;2023-05-23T07:20:06;31.60;;;14.13;;
25581;SDS011;13462;50.764;4.332;2023-05-23T07:22:32;25.38;;;12.63;;
25581;SDS011;13462;50.764;4.332;2023-05-23T07:24:58;29.95;;;12.05;;
25581;SDS011;13462;50.764;4.332;2023-05-23T07:27:23;27.08;;;12.73;;
25581;SDS011;13462;50.764;4.332;2023-05-23T07:29:50;22.10;;;12.15;;
25581;SDS011;13462;50.764;4.332;2023-05-23T07:32:16;22.30;;;12.35;;
25581;SDS011;13462;50.764;4.332;2023-05-23T07:34:42;27.65;;;11.32;;
25581;SDS011;13462;50.764;4.332;2023-05-23T07:37:08;21.20;;;12.60;;
25581;SDS011;13462;50.764;4.332;2023-05-23T07:39:33;26.15;;;12.60;;
25581;SDS011;13462;50.764;4.332;2023-05-23T07:41:59;23.23;;;13.73;;
25581;SDS011;13462;50.764;4.332;2023-05-23T07:44:25;25.63;;;15.13;;
25581;SDS011;13462;50.764;4.332;2023-05-23T07:46:50;26.58;;;16.42;;
25581;SDS011;13462;50.764;4.332;2023-05-23T07:49:16;29.13;;;15.80;;
25581;SDS011;13462;50.764;4.332;2023-05-23T07:51:41;23.58;;;14.77;;
25581;SDS011;13462;50.764;4.332;2023-05-23T07:54:07;25.73;;;14.98;;
25581;SDS011;13462;50.764;4.332;2023-05-23T07:56:33;22.52;;;14.00;;
25581;SDS011;13462;50.764;4.332;2023-05-23T07:58:58;21.98;;;12.57;;
25581;SDS011;13462;50.764;4.332;2023-05-23T08:01:24;22.30;;;11.50;;
25581;SDS011;13462;50.764;4.332;2023-05-23T08:03:50;20.83;;;10.98;;
25581;SDS011;13462;50.764;4.332;2023-05-23T08:06:16;17.33;;;9.35;;
25581;SDS011;13462;50.764;4.332;2023-05-23T08:08:41;18.75;;;9.75;;
25581;SDS011;13462;50.764;4.332;2023-05-23T08:11:08;24.08;;;10.05;;
25581;SDS011;13462;50.764;4.332;2023-05-23T08:13:33;15.88;;;9.52;;
25581;SDS011;13462;50.764;4.332;2023-05-23T08:15:59;19.10;;;9.70;;
25581;SDS011;13462;50.764;4.332;2023-05-23T08:18:25;20.85;;;10.15;;
25581;SDS011;13462;50.764;4.332;2023-05-23T08:20:51;19.65;;;9.88;;
25581;SDS011;13462;50.764;4.332;2023-05-23T08:23:17;19.17;;;9.25;;
25581;SDS011;13462;50.764;4.332;2023-05-23T08:25:43;21.45;;;10.27;;
25581;SDS011;13462;50.764;4.332;2023-05-23T08:28:09;18.30;;;10.50;;
25581;SDS011;13462;50.764;4.332;2023-05-23T08:30:34;19.08;;;10.15;;
25581;SDS011;13462;50.764;4.332;2023-05-23T08:33:00;21.02;;;10.20;;
25581;SDS011;13462;50.764;4.332;2023-05-23T08:35:28;23.13;;;9.98;;
25581;SDS011;13462;50.764;4.332;2023-05-23T08:37:59;17.63;;;9.93;;
25581;SDS011;13462;50.764;4.332;2023-05-23T08:40:25;19.98;;;9.77;;
25581;SDS011;13462;50.764;4.332;2023-05-23T08:42:56;24.80;;;9.93;;
25581;SDS011;13462;50.764;4.332;2023-05-23T08:45:22;19.20;;;9.23;;
25581;SDS011;13462;50.764;4.332;2023-05-23T08:47:48;19.10;;;10.23;;
25581;SDS011;13462;50.764;4.332;2023-05-23T08:50:16;21.35;;;11.07;;
25581;SDS011;13462;50.764;4.332;2023-05-23T08:52:43;20.48;;;11.57;;
25581;SDS011;13462;50.764;4.332;2023-05-23T08:55:18;22.73;;;11.07;;
25581;SDS011;13462;50.764;4.332;2023-05-23T08:57:44;25.23;;;11.05;;
25581;SDS011;13462;50.764;4.332;2023-05-23T09:00:13;20.10;;;10.45;;
25581;SDS011;13462;50.764;4.332;2023-05-23T09:02:43;24.70;;;10.68;;
25581;SDS011;13462;50.764;4.332;2023-05-23T09:05:09;20.10;;;9.68;;
25581;SDS011;13462;50.764;4.332;2023-05-23T09:07:35;21.73;;;10.23;;
25581;SDS011;13462;50.764;4.332;2023-05-23T09:10:05;18.50;;;10.38;;
25581;SDS011;13462;50.764;4.332;2023-05-23T09:12:33;17.27;;;9.90;;
25581;SDS011;13462;50.764;4.332;2023-05-23T09:15:01;22.05;;;10.68;;
25581;SDS011;13462;50.764;4.332;2023-05-23T09:17:30;19.80;;;10.70;;
25581;SDS011;13462;50.764;4.332;2023-05-23T09:19:57;22.58;;;11.00;;
25581;SDS011;13462;50.764;4.332;2023-05-23T09:22:27;21.70;;;10.65;;
25581;SDS011;13462;50.764;4.332;2023-05-23T09:24:53;18.30;;;10.20;;
25581;SDS011;13462;50.764;4.332;2023-05-23T09:27:20;15.90;;;11.10;;
25581;SDS011;13462;50.764;4.332;2023-05-23T09:29:45;25.63;;;11.77;;
25581;SDS011;13462;50.764;4.332;2023-05-23T09:32:15;25.13;;;12.07;;
25581;SDS011;13462;50.764;4.332;2023-05-23T09:40:05;22.55;;;12.90;;
25581;SDS011;13462;50.764;4.332;2023-05-23T09:42:34;24.52;;;14.07;;
25581;SDS011;13462;50.764;4.332;2023-05-23T09:45:00;25.67;;;13.68;;
25581;SDS011;13462;50.764;4.332;2023-05-23T09:47:26;20.20;;;13.18;;
25581;SDS011;13462;50.764;4.332;2023-05-23T09:49:52;27.75;;;12.73;;
25581;SDS011;13462;50.764;4.332;2023-05-23T09:52:18;20.25;;;11.50;;
25581;SDS011;13462;50.764;4.332;2023-05-23T09:54:45;20.13;;;12.77;;
25581;SDS011;13462;50.764;4.332;2023-05-23T09:57:11;20.85;;;13.55;;
25581;SDS011;13462;50.764;4.332;2023-05-23T09:59:39;25.67;;;14.07;;
25581;SDS011;13462;50.764;4.332;2023-05-23T10:02:10;23.55;;;12.23;;
25581;SDS011;13462;50.764;4.332;2023-05-23T10:04:37;19.98;;;11.77;;
25581;SDS011;13462;50.764;4.332;2023-05-23T10:07:06;27.42;;;13.82;;
25581;SDS011;13462;50.764;4.332;2023-05-23T10:09:38;22.45;;;13.93;;
25581;SDS011;13462;50.764;4.332;2023-05-23T10:14:56;23.83;;;12.70;;
25581;SDS011;13462;50.764;4.332;2023-05-23T10:20:10;22.23;;;14.52;;
25581;SDS011;13462;50.764;4.332;2023-05-23T10:22:40;21.83;;;14.63;;
25581;SDS011;13462;50.764;4.332;2023-05-23T10:25:07;26.42;;;14.52;;
25581;SDS011;13462;50.764;4.332;2023-05-23T10:27:34;20.85;;;13.25;;
25581;SDS011;13462;50.764;4.332;2023-05-23T10:30:06;21.27;;;12.80;;
25581;SDS011;13462;50.764;4.332;2023-05-23T10:32:32;14.70;;;10.43;;
25581;SDS011;13462;50.764;4.332;2023-05-23T10:46:08;17.65;;;8.57;;
25581;SDS011;13462;50.764;4.332;2023-05-23T10:48:34;16.58;;;9.52;;
25581;SDS011;13462;50.764;4.332;2023-05-23T10:53:34;14.73;;;9.48;;
25581;SDS011;13462;50.764;4.332;2023-05-23T10:56:03;14.05;;;8.82;;
25581;SDS011;13462;50.764;4.332;2023-05-23T10:58:30;11.90;;;9.07;;
25581;SDS011;13462;50.764;4.332;2023-05-23T11:00:59;15.27;;;9.75;;
25581;SDS011;13462;50.764;4.332;2023-05-23T11:03:48;14.95;;;8.70;;
25581;SDS011;13462;50.764;4.332;2023-05-23T11:06:27;12.60;;;8.00;;
25581;SDS011;13462;50.764;4.332;2023-05-23T11:14:17;12.68;;;6.00;;
25581;SDS011;13462;50.764;4.332;2023-05-23T11:16:44;10.52;;;5.20;;
25581;SDS011;13462;50.764;4.332;2023-05-23T11:24:13;7.10;;;3.38;;
25581;SDS011;13462;50.764;4.332;2023-05-23T11:26:39;8.10;;;4.03;;
25581;SDS011;13462;50.764;4.332;2023-05-23T11:29:23;10.75;;;5.72;;
25581;SDS011;13462;50.764;4.332;2023-05-23T11:31:50;11.23;;;5.40;;
25581;SDS011;13462;50.764;4.332;2023-05-23T11:34:17;8.57;;;5.63;;
25581;SDS011;13462;50.764;4.332;2023-05-23T11:36:42;10.55;;;5.70;;
25581;SDS011;13462;50.764;4.332;2023-05-23T11:39:09;11.23;;;6.95;;
25581;SDS011;13462;50.764;4.332;2023-05-23T11:41:34;8.95;;;5.85;;
25581;SDS011;13462;50.764;4.332;2023-05-23T11:44:00;12.55;;;5.60;;
25581;SDS011;13462;50.764;4.332;2023-05-23T11:46:26;13.43;;;5.32;;
25581;SDS011;13462;50.764;4.332;2023-05-23T11:48:52;8.57;;;5.25;;
25581;SDS011;13462;50.764;4.332;2023-05-23T11:51:17;10.30;;;5.10;;
25581;SDS011;13462;50.764;4.332;2023-05-23T11:53:46;11.90;;;4.60;;
25581;SDS011;13462;50.764;4.332;2023-05-23T11:56:13;10.25;;;4.15;;
25581;SDS011;13462;50.764;4.332;2023-05-23T11:58:39;11.73;;;5.28;;
25581;SDS011;13462;50.764;4.332;2023-05-23T12:01:08;9.07;;;4.93;;
25581;SDS011;13462;50.764;4.332;2023-05-23T12:03:48;12.60;;;5.68;;
25581;SDS011;13462;50.764;4.332;2023-05-23T12:06:17;14.32;;;5.20;;
25581;SDS011;13462;50.764;4.332;2023-05-23T12:08:43;13.38;;;5.25;;
25581;SDS011;13462;50.764;4.332;2023-05-23T12:11:09;17.90;;;5.90;;
25581;SDS011;13462;50.764;4.332;2023-05-23T12:13:35;12.40;;;5.07;;
25581;SDS011;13462;50.764;4.332;2023-05-23T12:16:01;13.32;;;5.65;;
25581;SDS011;13462;50.764;4.332;2023-05-23T12:18:29;17.63;;;4.80;;
25581;SDS011;13462;50.764;4.332;2023-05-23T12:21:00;13.63;;;4.32;;
25581;SDS011;13462;50.764;4.332;2023-05-23T12:23:27;18.73;;;5.45;;
25581;SDS011;13462;50.764;4.332;2023-05-23T12:25:55;15.35;;;4.70;;
25581;SDS011;13462;50.764;4.332;2023-05-23T12:28:33;13.82;;;4.70;;
25581;SDS011;13462;50.764;4.332;2023-05-23T12:31:09;16.75;;;4.72;;
25581;SDS011;13462;50.764;4.332;2023-05-23T12:33:41;13.48;;;4.38;;
25581;SDS011;13462;50.764;4.332;2023-05-23T12:36:08;9.07;;;4.10;;
25581;SDS011;13462;50.764;4.332;2023-05-23T12:38:37;15.00;;;5.93;;
25581;SDS011;13462;50.764;4.332;2023-05-23T12:43:47;16.27;;;5.03;;
25581;SDS011;13462;50.764;4.332;2023-05-23T12:46:14;10.98;;;4.53;;
25581;SDS011;13462;50.764;4.332;2023-05-23T12:48:40;18.20;;;5.72;;
25581;SDS011;13462;50.764;4.332;2023-05-23T12:51:06;13.75;;;5.03;;
25581;SDS011;13462;50.764;4.332;2023-05-23T12:53:31;15.50;;;4.90;;
25581;SDS011;13462;50.764;4.332;2023-05-23T12:55:57;13.63;;;5.25;;
25581;SDS011;13462;50.764;4.332;2023-05-23T12:58:22;17.33;;;5.32;;
25581;SDS011;13462;50.764;4.332;2023-05-23T13:00:49;18.25;;;5.03;;
25581;SDS011;13462;50.764;4.332;2023-05-23T13:03:14;16.50;;;5.35;;
25581;SDS011;13462;50.764;4.332;2023-05-23T13:05:41;19.52;;;5.90;;
25581;SDS011;13462;50.764;4.332;2023-05-23T13:08:07;14.40;;;5.35;;
25581;SDS011;13462;50.764;4.332;2023-05-23T13:10:32;15.98;;;5.72;;
25581;SDS011;13462;50.764;4.332;2023-05-23T13:12:58;17.85;;;5.25;;
25581;SDS011;13462;50.764;4.332;2023-05-23T13:15:24;19.05;;;5.00;;
25581;SDS011;13462;50.764;4.332;2023-05-23T13:17:49;18.42;;;5.80;;
25581;SDS011;13462;50.764;4.332;2023-05-23T13:20:15;18.38;;;5.07;;
25581;SDS011;13462;50.764;4.332;2023-05-23T13:22:41;18.50;;;5.78;;
25581;SDS011;13462;50.764;4.332;2023-05-23T13:25:07;13.98;;;5.53;;
25581;SDS011;13462;50.764;4.332;2023-05-23T13:27:33;14.10;;;5.45;;
25581;SDS011;13462;50.764;4.332;2023-05-23T13:29:59;19.10;;;5.80;;
25581;SDS011;13462;50.764;4.332;2023-05-23T13:32:25;14.70;;;5.35;;
25581;SDS011;13462;50.764;4.332;2023-05-23T13:34:50;12.95;;;5.88;;
25581;SDS011;13462;50.764;4.332;2023-05-23T13:37:16;20.65;;;5.68;;
25581;SDS011;13462;50.764;4.332;2023-05-23T13:39:42;19.25;;;5.47;;
25581;SDS011;13462;50.764;4.332;2023-05-23T13:42:08;18.52;;;6.25;;
25581;SDS011;13462;50.764;4.332;2023-05-23T13:44:34;17.52;;;5.05;;
25581;SDS011;13462;50.764;4.332;2023-05-23T13:47:09;20.50;;;5.85;;
25581;SDS011;13462;50.764;4.332;2023-05-23T13:49:39;18.38;;;5.75;;
25581;SDS011;13462;50.764;4.332;2023-05-23T13:52:06;17.45;;;5.90;;
25581;SDS011;13462;50.764;4.332;2023-05-23T13:54:32;14.50;;;5.60;;
25581;SDS011;13462;50.764;4.332;2023-05-23T13:56:57;16.13;;;5.40;;
25581;SDS011;13462;50.764;4.332;2023-05-23T13:59:27;15.70;;;5.90;;
25581;SDS011;13462;50.764;4.332;2023-05-23T14:01:53;17.77;;;5.72;;
25581;SDS011;13462;50.764;4.332;2023-05-23T14:04:18;19.38;;;6.50;;
25581;SDS011;13462;50.764;4.332;2023-05-23T14:06:44;17.35;;;5.93;;
25581;SDS011;13462;50.764;4.332;2023-05-23T14:09:10;15.10;;;5.32;;
25581;SDS011;13462;50.764;4.332;2023-05-23T14:11:36;20.02;;;6.28;;
25581;SDS011;13462;50.764;4.332;2023-05-23T14:14:02;17.70;;;5.13;;
25581;SDS011;13462;50.764;4.332;2023-05-23T14:16:28;17.10;;;5.93;;
25581;SDS011;13462;50.764;4.332;2023-05-23T14:18:54;16.70;;;5.53;;
25581;SDS011;13462;50.764;4.332;2023-05-23T14:21:20;20.23;;;5.70;;
25581;SDS011;13462;50.764;4.332;2023-05-23T14:23:46;16.67;;;5.82;;
25581;SDS011;13462;50.764;4.332;2023-05-23T14:26:11;18.73;;;6.18;;
25581;SDS011;13462;50.764;4.332;2023-05-23T14:28:37;14.38;;;5.43;;
25581;SDS011;13462;50.764;4.332;2023-05-23T14:31:02;18.58;;;5.95;;
25581;SDS011;13462;50.764;4.332;2023-05-23T14:33:28;22.95;;;6.32;;
25581;SDS011;13462;50.764;4.332;2023-05-23T14:35:54;17.50;;;5.45;;
25581;SDS011;13462;50.764;4.332;2023-05-23T14:38:19;17.98;;;5.47;;
25581;SDS011;13462;50.764;4.332;2023-05-23T14:40:45;19.05;;;5.35;;
25581;SDS011;13462;50.764;4.332;2023-05-23T14:43:12;19.02;;;6.10;;
25581;SDS011;13462;50.764;4.332;2023-05-23T14:45:38;20.63;;;5.93;;
25581;SDS011;13462;50.764;4.332;2023-05-23T14:48:04;17.40;;;5.43;;
25581;SDS011;13462;50.764;4.332;2023-05-23T14:50:30;18.00;;;5.90;;
25581;SDS011;13462;50.764;4.332;2023-05-23T14:52:56;18.20;;;6.47;;
25581;SDS011;13462;50.764;4.332;2023-05-23T14:55:23;17.17;;;6.15;;
25581;SDS011;13462;50.764;4.332;2023-05-23T14:57:49;19.90;;;5.88;;
25581;SDS011;13462;50.764;4.332;2023-05-23T15:00:15;16.63;;;5.60;;
25581;SDS011;13462;50.764;4.332;2023-05-23T15:02:41;15.02;;;5.40;;
25581;SDS011;13462;50.764;4.332;2023-05-23T15:05:07;14.95;;;5.95;;
25581;SDS011;13462;50.764;4.332;2023-05-23T15:07:34;19.83;;;6.75;;
25581;SDS011;13462;50.764;4.332;2023-05-23T15:09:59;14.57;;;4.50;;